createdAt,value
2022-08-14T00:00:36.879Z,101260.63
2022-08-14T00:03:40.803Z,101258.25
2022-08-14T00:06:43.045Z,101258.59
2022-08-14T00:09:55.457Z,101251.63
2022-08-14T00:13:06.822Z,101259.09
2022-08-14T00:16:14.152Z,101250.09
2022-08-14T00:19:35.741Z,101251.09
2022-08-14T00:22:56.207Z,101251.47
2022-08-14T00:26:06.455Z,101241.94
2022-08-14T00:29:10.052Z,101249.41
2022-08-14T00:33:01.689Z,101244.16
2022-08-14T00:36:37.694Z,101244.50
2022-08-14T00:38:57.037Z,101237.38
2022-08-14T00:41:58.754Z,101245.69
2022-08-14T00:45:00.360Z,101238.41
2022-08-14T00:48:02.476Z,101237.38
2022-08-14T00:51:06.753Z,101239.06
2022-08-14T00:54:16.703Z,101243.50
2022-08-14T00:57:29.562Z,101233.66
2022-08-14T01:00:37.385Z,101237.53
2022-08-14T01:03:52.817Z,101231.78
2022-08-14T01:06:55.548Z,101227.84
2022-08-14T01:09:59.133Z,101229.22
2022-08-14T01:13:01.457Z,101221.59
2022-08-14T01:16:08.001Z,101223.78
2022-08-14T01:19:28.713Z,101214.28
2022-08-14T01:22:30.329Z,101217.00
2022-08-14T01:25:33.272Z,101224.09
2022-08-14T01:28:56.174Z,101218.69
2022-08-14T01:32:01.797Z,101212.06
2022-08-14T01:35:19.830Z,101215.63
2022-08-14T01:38:34.404Z,101209.22
2022-08-14T01:41:40.405Z,101198.38
2022-08-14T01:44:43.165Z,101201.22
2022-08-14T01:47:51.553Z,101196.16
2022-08-14T01:50:53.119Z,101198.31
2022-08-14T01:54:22.137Z,101195.06
2022-08-14T01:57:24.782Z,101188.13
2022-08-14T02:00:38.959Z,101191.88
2022-08-14T02:03:41.288Z,101190.16
2022-08-14T02:06:54.184Z,101183.22
2022-08-14T02:09:56.213Z,101184.56
2022-08-14T02:12:59.583Z,101180.66
2022-08-14T02:16:01.255Z,101168.59
2022-08-14T02:19:27.401Z,101161.84
2022-08-14T02:22:33.982Z,101158.44
2022-08-14T02:25:36.132Z,101154.03
2022-08-14T02:28:57.547Z,101149.97
2022-08-14T02:32:01.036Z,101154.34
2022-08-14T02:35:06.836Z,101145.69
2022-08-14T02:38:11.820Z,101143.63
2022-08-14T02:41:30.346Z,101148.00
2022-08-14T02:44:40.325Z,101153.78
2022-08-14T02:47:41.940Z,101155.38
2022-08-14T02:50:51.372Z,101155.19
2022-08-14T02:53:54.856Z,101147.88
2022-08-14T02:57:16.737Z,101143.63
2022-08-14T03:00:19.916Z,101141.78
2022-08-14T03:03:23.930Z,101140.06
2022-08-14T03:06:49.030Z,101138.22
2022-08-14T03:10:25.205Z,101142.47
2022-08-14T03:13:13.809Z,101138.75
2022-08-14T03:16:26.878Z,101141.28
2022-08-14T03:19:28.769Z,101137.72
2022-08-14T03:22:30.408Z,101135.19
2022-08-14T03:25:37.378Z,101123.50
2022-08-14T03:28:41.376Z,101123.69
2022-08-14T03:31:44.137Z,101115.72
2022-08-14T03:34:55.468Z,101106.75
2022-08-14T03:39:11.905Z,101103.34
2022-08-14T03:41:33.389Z,101093.03
2022-08-14T03:45:19.257Z,101094.06
2022-08-14T03:47:58.655Z,101092.53
2022-08-14T03:51:01.438Z,101081.84
2022-08-14T03:54:08.345Z,101091.66
2022-08-14T03:57:12.623Z,101085.22
2022-08-14T04:00:43.108Z,101084.91
2022-08-14T04:03:37.397Z,101069.53
2022-08-14T04:06:45.224Z,101069.53
2022-08-14T04:09:50.285Z,101061.59
2022-08-14T04:12:55.797Z,101062.91
2022-08-14T04:16:02.447Z,101063.41
2022-08-14T04:19:08.646Z,101068.63
2022-08-14T04:22:10.185Z,101064.69
2022-08-14T04:25:13.319Z,101065.69
2022-08-14T04:29:07.604Z,101060.44
2022-08-14T04:33:00.412Z,101061.75
2022-08-14T04:35:01.669Z,101062.09
2022-08-14T04:38:37.183Z,101052.59
2022-08-14T04:41:58.361Z,101046.00
2022-08-14T04:45:01.293Z,101047.47
2022-08-14T04:48:39.268Z,101054.34
2022-08-14T04:51:46.990Z,101050.41
2022-08-14T04:54:57.947Z,101047.88
2022-08-14T04:57:59.636Z,101047.72
2022-08-14T05:01:12.830Z,101051.28
2022-08-14T05:04:21.794Z,101051.44
2022-08-14T05:07:46.942Z,101039.91
2022-08-14T05:10:52.000Z,101038.25
2022-08-14T05:14:34.456Z,101036.53
2022-08-14T05:17:18.300Z,101039.22
2022-08-14T05:21:57.919Z,101025.56
2022-08-14T05:23:42.274Z,101027.47
2022-08-14T05:26:48.058Z,101029.22
2022-08-14T05:29:50.482Z,101035.69
2022-08-14T05:32:52.342Z,101033.91
2022-08-14T05:36:01.158Z,101034.75
2022-08-14T05:39:04.321Z,101035.47
2022-08-14T05:42:10.181Z,101027.22
2022-08-14T05:45:24.157Z,101037.75
2022-08-14T05:48:33.701Z,101043.03
2022-08-14T05:51:38.796Z,101035.81
2022-08-14T05:54:40.428Z,101034.81
2022-08-14T05:57:54.469Z,101022.31
2022-08-14T06:00:57.485Z,101024.69
2022-08-14T06:03:59.200Z,101026.03
2022-08-14T06:07:00.801Z,101018.56
2022-08-14T06:10:06.217Z,101021.13
2022-08-14T06:13:07.950Z,101019.63
2022-08-14T06:16:11.205Z,101025.22
2022-08-14T06:19:15.548Z,101023.69
2022-08-14T06:22:20.494Z,101025.91
2022-08-14T06:25:25.076Z,101026.22
2022-08-14T06:28:28.398Z,101023.19
2022-08-14T06:31:30.306Z,101015.41
2022-08-14T06:35:10.329Z,101012.22
2022-08-14T06:37:56.829Z,101014.59
2022-08-14T06:40:58.712Z,101022.34
2022-08-14T06:44:00.326Z,101014.53
2022-08-14T06:47:05.389Z,101014.72
2022-08-14T06:50:10.456Z,101007.25
2022-08-14T06:53:14.678Z,101011.44
2022-08-14T06:56:16.736Z,100999.56
2022-08-14T06:59:19.637Z,101007.50
2022-08-14T07:02:43.584Z,100998.50
2022-08-14T07:05:55.922Z,101007.31
2022-08-14T07:08:59.958Z,101003.34
2022-08-14T07:12:01.729Z,101007.06
2022-08-14T07:15:05.067Z,101005.34
2022-08-14T07:18:08.839Z,101008.38
2022-08-14T07:21:10.771Z,101013.25
2022-08-14T07:24:21.770Z,101006.94
2022-08-14T07:27:28.266Z,101003.50
2022-08-14T07:30:35.506Z,100998.22
2022-08-14T07:33:37.040Z,101000.72
2022-08-14T07:36:38.618Z,100999.63
2022-08-14T07:40:01.650Z,101008.69
2022-08-14T07:43:14.399Z,101003.56
2022-08-14T07:46:21.399Z,101008.63
2022-08-14T07:49:33.210Z,101006.69
2022-08-14T07:52:35.052Z,101007.25
2022-08-14T07:55:37.659Z,101001.81
2022-08-14T07:58:51.548Z,101005.16
2022-08-14T08:01:53.628Z,101017.38
2022-08-14T08:05:00.652Z,101013.91
2022-08-14T08:08:03.783Z,101010.47
2022-08-14T08:11:14.976Z,101010.56
2022-08-14T08:14:18.224Z,101017.34
2022-08-14T08:17:20.502Z,101015.94
2022-08-14T08:20:27.263Z,101024.09
2022-08-14T08:23:40.069Z,101015.72
2022-08-14T08:26:45.137Z,101016.38
2022-08-14T08:29:50.970Z,101009.94
2022-08-14T08:32:55.270Z,101011.44
2022-08-14T08:36:03.496Z,101012.38
2022-08-14T08:39:17.065Z,101017.72
2022-08-14T08:42:31.222Z,101001.16
2022-08-14T08:45:39.777Z,101002.06
2022-08-14T08:48:53.949Z,101004.91
2022-08-14T08:52:04.358Z,101002.06
2022-08-14T08:55:06.573Z,101002.53
2022-08-14T08:58:20.277Z,100989.41
2022-08-14T09:01:33.504Z,100989.41
2022-08-14T09:04:45.221Z,100992.94
2022-08-14T09:07:56.650Z,100985.47
2022-08-14T09:10:59.652Z,100981.31
2022-08-14T09:14:02.433Z,100974.25
2022-08-14T09:17:07.144Z,100969.25
2022-08-14T09:20:11.910Z,100970.00
2022-08-14T09:23:16.842Z,100973.00
2022-08-14T09:26:21.098Z,100965.28
2022-08-14T09:29:23.752Z,100954.84
2022-08-14T09:32:59.091Z,100953.81
2022-08-14T09:36:18.472Z,100947.34
2022-08-14T09:39:55.832Z,100941.69
2022-08-14T09:43:07.482Z,100929.75
2022-08-14T09:46:09.649Z,100924.38
2022-08-14T09:49:16.724Z,100933.50
2022-08-14T09:52:23.791Z,100907.88
2022-08-14T09:55:42.608Z,100903.84
2022-08-14T09:58:47.362Z,100901.63
2022-08-14T10:01:53.099Z,100890.44
2022-08-14T10:05:10.209Z,100887.16
2022-08-14T10:08:26.487Z,100886.84
2022-08-14T10:11:37.911Z,100886.06
2022-08-14T10:14:45.095Z,100878.94
2022-08-14T10:18:08.056Z,100876.94
2022-08-14T10:21:18.069Z,100864.56
2022-08-14T10:24:37.299Z,100874.66
2022-08-14T10:27:39.430Z,100871.94
2022-08-14T10:30:42.904Z,100866.72
2022-08-14T10:33:50.806Z,100857.88
2022-08-14T10:37:04.011Z,100848.38
2022-08-14T10:40:37.385Z,100862.03
2022-08-14T10:43:42.480Z,100852.59
2022-08-14T10:47:39.329Z,100857.63
2022-08-14T10:50:15.858Z,100845.38
2022-08-14T10:53:29.730Z,100849.34
2022-08-14T10:56:35.775Z,100853.69
2022-08-14T11:00:14.377Z,100852.84
2022-08-14T11:03:35.714Z,100834.47
2022-08-14T11:06:53.056Z,100835.25
2022-08-14T11:10:04.811Z,100836.72
2022-08-14T11:13:07.285Z,100826.97
2022-08-14T11:16:09.825Z,100836.84
2022-08-14T11:19:13.634Z,100823.06
2022-08-14T11:22:55.729Z,100822.19
2022-08-14T11:25:53.588Z,100818.22
2022-08-14T11:28:57.489Z,100804.28
2022-08-14T11:32:02.354Z,100801.50
2022-08-14T11:35:04.356Z,100793.22
2022-08-14T11:38:08.423Z,100800.31
2022-08-14T11:41:11.449Z,100795.78
2022-08-14T11:44:13.276Z,100798.78
2022-08-14T11:47:20.700Z,100784.88
2022-08-14T11:50:37.230Z,100781.06
2022-08-14T11:53:42.332Z,100771.53
2022-08-14T11:56:46.136Z,100773.16
2022-08-14T11:59:47.947Z,100777.75
2022-08-14T12:03:02.576Z,100768.66
2022-08-14T12:06:28.982Z,100762.88
2022-08-14T12:09:38.685Z,100771.72
2022-08-14T12:12:45.045Z,100770.50
2022-08-14T12:16:06.614Z,100773.53
2022-08-14T12:19:12.942Z,100768.19
2022-08-14T12:22:29.443Z,100766.19
2022-08-14T12:25:34.937Z,100759.47
2022-08-14T12:28:59.715Z,100749.19
2022-08-14T12:32:06.677Z,100739.22
2022-08-14T12:35:11.225Z,100719.44
2022-08-14T12:38:19.504Z,100721.13
2022-08-14T12:41:28.228Z,100721.03
2022-08-14T12:44:42.976Z,100709.53
2022-08-14T12:47:45.592Z,100696.25
2022-08-14T12:50:53.307Z,100682.81
2022-08-14T12:53:59.617Z,100683.97
2022-08-14T12:57:08.288Z,100677.53
2022-08-14T13:00:22.939Z,100680.72
2022-08-14T13:03:27.989Z,100683.09
2022-08-14T13:06:29.960Z,100692.47
2022-08-14T13:09:36.612Z,100683.19
2022-08-14T13:13:02.942Z,100665.13
2022-08-14T13:16:05.287Z,100668.28
2022-08-14T13:19:24.352Z,100663.47
2022-08-14T13:22:33.385Z,100650.41
2022-08-14T13:25:37.748Z,100657.91
2022-08-14T13:29:02.754Z,100654.44
2022-08-14T13:32:05.839Z,100661.19
2022-08-14T13:35:11.037Z,100647.47
2022-08-14T13:38:25.605Z,100627.06
2022-08-14T13:41:36.109Z,100627.13
2022-08-14T13:44:42.581Z,100620.69
2022-08-14T13:47:46.657Z,100619.03
2022-08-14T13:50:55.420Z,100604.91
2022-08-14T13:54:10.957Z,100607.19
2022-08-14T13:57:17.739Z,100599.91
2022-08-14T14:00:32.522Z,100598.72
2022-08-14T14:03:38.191Z,100598.22
2022-08-14T14:06:40.776Z,100581.84
2022-08-14T14:09:52.703Z,100587.13
2022-08-14T14:12:56.161Z,100591.19
2022-08-14T14:16:03.799Z,100575.88
2022-08-14T14:19:09.379Z,100573.28
2022-08-14T14:22:13.423Z,100570.28
2022-08-14T14:25:45.921Z,100572.44
2022-08-14T14:28:57.119Z,100567.91
2022-08-14T14:32:00.438Z,100568.16
2022-08-14T14:35:02.945Z,100573.66
2022-08-14T14:38:07.020Z,100564.84
2022-08-14T14:41:10.594Z,100561.00
2022-08-14T14:44:15.936Z,100559.56
2022-08-14T14:47:22.528Z,100548.69
2022-08-14T14:50:25.003Z,100543.09
2022-08-14T14:53:28.605Z,100548.56
2022-08-14T14:56:47.418Z,100539.75
2022-08-14T14:59:53.799Z,100546.88
2022-08-14T15:02:57.831Z,100541.41
2022-08-14T15:06:02.179Z,100534.84
2022-08-14T15:09:08.886Z,100548.56
2022-08-14T15:12:27.930Z,100545.25
2022-08-14T15:15:37.808Z,100539.38
2022-08-14T15:18:46.917Z,100532.81
2022-08-14T15:21:51.167Z,100533.88
2022-08-14T15:24:53.110Z,100536.03
2022-08-14T15:27:56.317Z,100531.59
2022-08-14T15:30:59.204Z,100531.72
2022-08-14T15:34:43.957Z,100532.09
2022-08-14T15:37:42.233Z,100518.25
2022-08-14T15:40:44.264Z,100513.00
2022-08-14T15:43:54.301Z,100505.63
2022-08-14T15:46:59.916Z,100505.25
2022-08-14T15:50:08.689Z,100501.78
2022-08-14T15:53:12.280Z,100505.84
2022-08-14T15:56:20.858Z,100498.59
2022-08-14T15:59:58.539Z,100492.25
2022-08-14T16:03:00.725Z,100491.03
2022-08-14T16:06:11.078Z,100492.97
2022-08-14T16:09:17.412Z,100498.66
2022-08-14T16:12:20.317Z,100481.06
2022-08-14T16:15:45.369Z,100482.03
2022-08-14T16:18:59.007Z,100479.03
2022-08-14T16:25:34.478Z,100480.59
2022-08-14T16:28:37.209Z,100469.03
2022-08-14T16:31:39.936Z,100473.91
2022-08-14T16:34:49.143Z,100460.44
2022-08-14T16:37:56.568Z,100457.09
2022-08-14T16:40:25.176Z,100481.19
2022-08-14T16:41:23.337Z,100457.94
2022-08-14T16:44:41.077Z,100454.56
2022-08-14T16:47:47.872Z,100454.81
2022-08-14T16:50:52.455Z,100446.47
2022-08-14T16:53:54.656Z,100441.94
2022-08-14T16:57:12.794Z,100448.34
2022-08-14T17:00:43.920Z,100445.22
2022-08-14T17:03:53.145Z,100440.81
2022-08-14T17:06:57.471Z,100443.78
2022-08-14T17:10:09.702Z,100444.25
2022-08-14T17:13:59.738Z,100434.78
2022-08-14T17:16:56.426Z,100435.50
2022-08-14T17:20:02.273Z,100430.72
2022-08-14T17:23:11.345Z,100427.00
2022-08-14T17:26:45.651Z,100416.28
2022-08-14T17:33:23.164Z,100418.50
2022-08-14T17:36:26.529Z,100418.97
2022-08-14T17:39:40.220Z,100417.78
2022-08-14T17:42:55.713Z,100418.22
2022-08-14T17:46:04.913Z,100416.44
2022-08-14T17:49:16.255Z,100416.31
2022-08-14T17:52:34.106Z,100420.16
2022-08-14T17:56:01.781Z,100418.78
2022-08-14T17:59:05.740Z,100435.06
2022-08-14T18:02:09.683Z,100425.91
2022-08-14T18:05:23.764Z,100424.06
2022-08-14T18:08:43.734Z,100422.25
2022-08-14T18:11:46.733Z,100421.47
2022-08-14T18:14:52.910Z,100428.09
2022-08-14T18:17:58.047Z,100419.09
2022-08-14T18:21:42.319Z,100422.97
2022-08-14T18:24:29.455Z,100420.75
2022-08-14T18:27:42.075Z,100414.75
2022-08-14T18:30:58.719Z,100418.81
2022-08-14T18:34:32.022Z,100421.88
2022-08-14T18:37:36.611Z,100416.66
2022-08-14T18:40:40.556Z,100416.91
2022-08-14T18:43:58.945Z,100414.47
2022-08-14T18:47:15.992Z,100412.03
2022-08-14T18:50:27.480Z,100418.59
2022-08-14T18:53:59.454Z,100419.03
2022-08-14T18:57:03.818Z,100423.91
2022-08-14T19:00:32.808Z,100420.75
2022-08-14T19:03:36.461Z,100413.00
2022-08-14T19:06:55.980Z,100415.72
2022-08-14T19:10:03.516Z,100420.75
2022-08-14T19:13:12.382Z,100412.13
2022-08-14T19:16:22.814Z,100420.69
2022-08-14T19:19:38.257Z,100417.16
2022-08-14T19:22:41.309Z,100423.66
2022-08-14T19:25:54.313Z,100417.34
2022-08-14T19:28:56.554Z,100428.72
2022-08-14T19:32:02.997Z,100421.81
2022-08-14T19:35:49.501Z,100425.84
2022-08-14T19:39:00.108Z,100417.03
2022-08-14T19:42:03.323Z,100422.97
2022-08-14T19:45:15.379Z,100415.44
2022-08-14T19:48:16.937Z,100418.00
2022-08-14T19:51:18.693Z,100422.81
2022-08-14T19:54:34.880Z,100414.25
2022-08-14T19:57:36.850Z,100417.03
2022-08-14T20:00:52.762Z,100411.38
2022-08-14T20:03:59.908Z,100419.81
2022-08-14T20:07:06.431Z,100409.34
2022-08-14T20:11:08.261Z,100416.91
2022-08-14T20:14:10.341Z,100420.97
2022-08-14T20:17:19.367Z,100420.34
2022-08-14T20:20:30.872Z,100416.56
2022-08-14T20:23:43.615Z,100422.91
2022-08-14T20:27:34.103Z,100414.75
2022-08-14T20:30:37.443Z,100413.91
2022-08-14T20:33:48.652Z,100412.66
2022-08-14T20:37:00.836Z,100412.44
2022-08-14T20:40:23.329Z,100416.66
2022-08-14T20:43:52.868Z,100422.53
2022-08-14T20:47:00.965Z,100420.44
2022-08-14T20:50:21.237Z,100417.28
2022-08-14T20:53:28.940Z,100430.53
2022-08-14T20:56:41.683Z,100424.88
2022-08-14T20:59:57.359Z,100422.56
2022-08-14T21:02:59.477Z,100416.47
2022-08-14T21:06:17.264Z,100417.53
2022-08-14T21:10:03.356Z,100417.09
2022-08-14T21:12:55.559Z,100420.44
2022-08-14T21:16:33.442Z,100414.78
2022-08-14T21:19:33.032Z,100412.06
2022-08-14T21:22:37.586Z,100407.25
2022-08-14T21:25:42.537Z,100409.94
2022-08-14T21:28:46.003Z,100407.63
2022-08-14T21:31:55.670Z,100403.22
2022-08-14T21:35:16.217Z,100398.63
2022-08-14T21:38:20.517Z,100397.78
2022-08-14T21:41:42.386Z,100388.53
2022-08-14T21:44:53.450Z,100392.09
2022-08-14T21:48:02.304Z,100397.31
2022-08-14T21:51:54.917Z,100383.47
2022-08-14T21:54:49.803Z,100388.66
2022-08-14T21:58:51.713Z,100387.63
2022-08-14T22:01:23.853Z,100380.91
2022-08-14T22:04:33.653Z,100379.41
2022-08-14T22:07:38.894Z,100377.31
2022-08-14T22:10:44.755Z,100379.63
2022-08-14T22:13:48.869Z,100375.44
2022-08-14T22:17:02.257Z,100379.66
2022-08-14T22:20:16.554Z,100374.59
2022-08-14T22:23:18.736Z,100373.75
2022-08-14T22:26:21.791Z,100372.66
2022-08-14T22:29:23.940Z,100369.09
2022-08-14T22:32:55.948Z,100367.38
2022-08-14T22:35:56.522Z,100358.59
2022-08-14T22:38:58.495Z,100359.34
2022-08-14T22:42:02.080Z,100361.84
2022-08-14T22:45:22.745Z,100357.41
2022-08-14T22:48:25.169Z,100351.94
2022-08-14T22:51:32.404Z,100353.38
2022-08-14T22:54:51.878Z,100351.25
2022-08-14T22:57:55.376Z,100351.88
2022-08-14T23:01:01.090Z,100342.44
2022-08-14T23:04:04.530Z,100345.56
2022-08-14T23:07:21.998Z,100343.22
2022-08-14T23:10:31.930Z,100342.78
2022-08-14T23:13:39.703Z,100340.50
2022-08-14T23:16:42.513Z,100338.78
2022-08-14T23:19:44.764Z,100336.47
2022-08-14T23:22:51.203Z,100332.09
2022-08-14T23:25:59.387Z,100326.03
2022-08-14T23:29:03.361Z,100328.91
2022-08-14T23:32:06.170Z,100330.13
2022-08-14T23:35:27.140Z,100334.09
2022-08-14T23:38:30.504Z,100321.72
2022-08-14T23:41:46.452Z,100326.53
2022-08-14T23:44:55.699Z,100325.06
2022-08-14T23:47:59.484Z,100325.25
2022-08-14T23:51:02.953Z,100311.22
2022-08-14T23:54:05.591Z,100306.19
2022-08-14T23:57:30.748Z,100304.69
